createdAt,value
2017-12-13T00:00:05.164Z,7.00
2017-12-13T00:02:36.758Z,6.67
2017-12-13T00:05:08.784Z,6.10
2017-12-13T00:07:40.376Z,6.20
2017-12-13T00:10:11.973Z,6.07
2017-12-13T00:12:43.556Z,6.40
2017-12-13T00:15:15.267Z,6.10
2017-12-13T00:17:46.886Z,6.70
2017-12-13T00:20:18.456Z,5.90
2017-12-13T00:22:50.032Z,6.80
2017-12-13T00:25:21.636Z,6.47
2017-12-13T00:27:53.243Z,6.40
2017-12-13T00:30:24.824Z,6.50
2017-12-13T00:32:56.531Z,5.80
2017-12-13T00:35:28.112Z,6.03
2017-12-13T00:37:59.717Z,6.17
2017-12-13T00:40:31.315Z,4.77
2017-12-13T00:43:02.918Z,5.17
2017-12-13T00:45:34.517Z,4.30
2017-12-13T00:48:06.112Z,4.73
2017-12-13T00:50:37.730Z,4.70
2017-12-13T00:53:09.312Z,4.90
2017-12-13T00:55:40.914Z,5.13
2017-12-13T00:58:12.501Z,4.70
2017-12-13T01:00:44.099Z,5.23
2017-12-13T01:03:16.714Z,5.13
2017-12-13T01:05:48.308Z,5.30
2017-12-13T01:08:19.928Z,4.63
2017-12-13T01:10:51.520Z,5.27
2017-12-13T01:13:23.128Z,5.27
2017-12-13T01:15:54.708Z,5.17
2017-12-13T01:18:26.304Z,4.67
2017-12-13T01:20:57.899Z,4.83
2017-12-13T01:23:29.511Z,4.77
2017-12-13T01:26:01.116Z,4.80
2017-12-13T01:28:32.687Z,4.73
2017-12-13T01:31:04.314Z,5.10
2017-12-13T01:33:35.918Z,4.83
2017-12-13T01:36:07.490Z,4.70
2017-12-13T01:38:39.081Z,4.67
2017-12-13T01:41:10.668Z,4.73
2017-12-13T01:43:42.266Z,4.83
2017-12-13T01:46:13.844Z,4.90
2017-12-13T01:48:45.446Z,4.80
2017-12-13T01:51:17.004Z,5.40
2017-12-13T01:53:48.592Z,5.10
2017-12-13T01:56:20.176Z,5.20
2017-12-13T01:58:51.794Z,4.70
2017-12-13T02:01:23.372Z,4.90
2017-12-13T02:03:54.981Z,5.50
2017-12-13T02:06:26.573Z,4.67
2017-12-13T02:08:58.170Z,4.80
2017-12-13T02:11:29.740Z,4.40
2017-12-13T02:14:01.345Z,4.27
2017-12-13T02:16:32.924Z,4.47
2017-12-13T02:19:04.530Z,3.60
2017-12-13T02:21:36.088Z,4.27
2017-12-13T02:24:07.677Z,4.87
2017-12-13T02:26:39.260Z,4.80
2017-12-13T02:29:10.868Z,4.50
2017-12-13T02:31:42.445Z,4.43
2017-12-13T02:34:14.041Z,4.97
2017-12-13T02:36:45.654Z,4.40
2017-12-13T02:39:17.244Z,4.67
2017-12-13T02:41:48.820Z,4.60
2017-12-13T02:44:20.424Z,4.47
2017-12-13T02:46:52.034Z,4.37
2017-12-13T02:49:23.604Z,5.40
2017-12-13T02:51:55.188Z,5.40
2017-12-13T02:54:26.793Z,5.90
2017-12-13T02:56:58.371Z,5.10
2017-12-13T02:59:29.976Z,4.87
2017-12-13T03:02:01.580Z,4.67
2017-12-13T03:04:33.144Z,4.50
2017-12-13T03:07:04.760Z,5.13
2017-12-13T03:09:36.340Z,4.47
2017-12-13T03:12:07.952Z,5.30
2017-12-13T03:14:39.536Z,5.13
2017-12-13T03:17:11.124Z,5.10
2017-12-13T03:19:42.777Z,5.20
2017-12-13T03:22:14.378Z,5.63
2017-12-13T03:24:45.973Z,5.13
2017-12-13T03:27:17.564Z,5.53
2017-12-13T03:29:49.164Z,5.20
2017-12-13T03:32:20.749Z,5.20
2017-12-13T03:34:52.344Z,5.03
2017-12-13T03:37:23.924Z,5.30
2017-12-13T03:39:55.508Z,5.50
2017-12-13T03:42:27.105Z,5.27
2017-12-13T03:44:58.697Z,5.27
2017-12-13T03:47:30.305Z,5.10
2017-12-13T03:50:01.888Z,4.83
2017-12-13T03:52:33.468Z,5.10
2017-12-13T03:55:05.051Z,5.13
2017-12-13T03:57:36.660Z,5.07
2017-12-13T04:00:08.262Z,4.93
2017-12-13T04:02:39.853Z,4.67
2017-12-13T04:05:11.440Z,5.20
2017-12-13T04:07:43.044Z,4.93
2017-12-13T04:10:14.620Z,4.17
2017-12-13T04:12:46.225Z,4.63
2017-12-13T04:15:17.826Z,4.37
2017-12-13T04:17:49.396Z,4.97
2017-12-13T04:20:20.997Z,4.40
2017-12-13T04:22:52.642Z,4.10
2017-12-13T04:25:24.243Z,4.23
2017-12-13T04:27:55.820Z,4.33
2017-12-13T04:30:27.412Z,3.87
2017-12-13T04:32:59.005Z,4.37
2017-12-13T04:35:30.601Z,3.73
2017-12-13T04:38:02.185Z,4.23
2017-12-13T04:40:33.794Z,3.70
2017-12-13T04:43:05.372Z,3.73
2017-12-13T04:45:36.976Z,3.63
2017-12-13T04:48:08.568Z,3.87
2017-12-13T04:50:40.141Z,3.83
2017-12-13T04:53:11.752Z,4.30
2017-12-13T04:55:43.338Z,3.60
2017-12-13T04:58:14.961Z,4.10
2017-12-13T05:00:46.546Z,3.70
2017-12-13T05:03:18.146Z,4.13
2017-12-13T05:05:49.716Z,3.60
2017-12-13T05:08:21.305Z,3.50
2017-12-13T05:10:52.894Z,3.90
2017-12-13T05:13:24.501Z,4.30
2017-12-13T05:15:56.075Z,3.80
2017-12-13T05:18:27.685Z,3.67
2017-12-13T05:20:59.270Z,3.83
2017-12-13T05:23:30.879Z,3.70
2017-12-13T05:26:02.475Z,3.50
2017-12-13T05:28:34.081Z,3.50
2017-12-13T05:31:05.660Z,3.47
2017-12-13T05:33:37.265Z,3.47
2017-12-13T05:36:08.844Z,3.33
2017-12-13T05:38:40.445Z,3.43
2017-12-13T05:41:12.032Z,3.37
2017-12-13T05:43:43.616Z,3.60
2017-12-13T05:46:15.215Z,3.00
2017-12-13T05:48:46.806Z,3.20
2017-12-13T05:51:18.400Z,3.20
2017-12-13T05:53:49.986Z,3.20
2017-12-13T05:56:21.577Z,3.60
2017-12-13T05:58:53.144Z,3.33
2017-12-13T06:01:24.779Z,3.57
2017-12-13T06:03:56.394Z,4.00
2017-12-13T06:06:27.979Z,3.80
2017-12-13T06:08:59.559Z,3.47
2017-12-13T06:11:31.175Z,4.07
2017-12-13T06:14:02.745Z,4.20
2017-12-13T06:16:34.337Z,3.63
2017-12-13T06:19:05.948Z,5.77
2017-12-13T06:21:37.520Z,4.20
2017-12-13T06:24:09.108Z,3.83
2017-12-13T06:26:40.695Z,4.40
2017-12-13T06:29:12.273Z,4.07
2017-12-13T06:31:43.899Z,4.20
2017-12-13T06:34:15.464Z,4.03
2017-12-13T06:36:47.043Z,4.50
2017-12-13T06:39:18.640Z,4.60
2017-12-13T06:41:50.208Z,4.47
2017-12-13T06:44:21.835Z,4.40
2017-12-13T06:46:53.433Z,4.13
2017-12-13T06:49:25.001Z,4.27
2017-12-13T06:51:56.614Z,4.20
2017-12-13T06:54:28.201Z,4.37
2017-12-13T06:56:59.833Z,4.70
2017-12-13T06:59:31.426Z,4.37
2017-12-13T07:02:03.005Z,4.70
2017-12-13T07:04:34.599Z,4.57
2017-12-13T07:07:06.179Z,4.30
2017-12-13T07:09:37.793Z,4.70
2017-12-13T07:12:09.364Z,4.40
2017-12-13T07:14:40.953Z,5.40
2017-12-13T07:17:12.556Z,4.63
2017-12-13T07:19:44.181Z,4.73
2017-12-13T07:22:15.761Z,5.17
2017-12-13T07:24:47.369Z,5.03
2017-12-13T07:27:18.952Z,4.70
2017-12-13T07:29:50.548Z,5.23
2017-12-13T07:32:22.142Z,5.17
2017-12-13T07:34:53.752Z,4.93
2017-12-13T07:37:25.315Z,4.60
2017-12-13T07:39:56.924Z,5.30
2017-12-13T07:42:28.520Z,5.50
2017-12-13T07:45:00.105Z,5.87
2017-12-13T07:47:31.704Z,5.30
2017-12-13T07:50:03.314Z,6.00
2017-12-13T07:52:34.924Z,5.70
2017-12-13T07:55:06.488Z,5.87
2017-12-13T07:57:38.083Z,5.43
2017-12-13T08:00:09.652Z,5.47
2017-12-13T08:02:41.249Z,5.70
2017-12-13T08:05:12.848Z,5.67
2017-12-13T08:07:44.421Z,5.93
2017-12-13T08:10:16.020Z,5.43
2017-12-13T08:12:47.641Z,5.20
2017-12-13T08:15:19.224Z,5.53
2017-12-13T08:17:50.824Z,4.97
2017-12-13T08:20:22.388Z,5.33
2017-12-13T08:22:53.992Z,4.73
2017-12-13T08:25:25.566Z,4.73
2017-12-13T08:27:57.160Z,4.97
2017-12-13T08:30:28.757Z,5.13
2017-12-13T08:33:00.332Z,4.97
2017-12-13T08:35:31.937Z,5.00
2017-12-13T08:38:03.565Z,4.63
2017-12-13T08:40:35.154Z,4.87
2017-12-13T08:43:06.764Z,4.77
2017-12-13T08:45:38.357Z,4.97
2017-12-13T08:48:10.773Z,5.90
2017-12-13T08:50:42.363Z,5.43
2017-12-13T08:53:13.961Z,5.57
2017-12-13T08:55:45.554Z,5.30
2017-12-13T08:58:17.146Z,5.57
2017-12-13T09:00:50.795Z,8.50
2017-12-13T09:03:22.401Z,5.03
2017-12-13T09:05:54.004Z,4.80
2017-12-13T09:08:25.614Z,5.57
2017-12-13T09:10:57.212Z,5.23
2017-12-13T09:13:28.812Z,4.33
2017-12-13T09:16:00.434Z,5.37
2017-12-13T09:18:32.010Z,5.00
2017-12-13T09:21:03.711Z,4.63
2017-12-13T09:23:35.308Z,4.67
2017-12-13T09:26:06.963Z,5.13
2017-12-13T09:28:38.532Z,4.47
2017-12-13T09:31:10.363Z,5.10
2017-12-13T09:33:41.941Z,5.00
2017-12-13T09:36:14.357Z,4.67
2017-12-13T09:38:46.053Z,4.87
2017-12-13T09:41:17.657Z,4.80
2017-12-13T09:43:49.270Z,4.90
2017-12-13T09:46:20.857Z,4.60
2017-12-13T09:48:52.507Z,3.73
2017-12-13T09:51:24.072Z,5.47
2017-12-13T09:53:56.276Z,4.90
2017-12-13T09:56:27.875Z,4.93
2017-12-13T09:58:59.508Z,4.90
2017-12-13T10:01:31.693Z,4.93
2017-12-13T10:04:03.294Z,4.70
2017-12-13T10:06:34.903Z,4.90
2017-12-13T10:09:06.522Z,5.10
2017-12-13T10:11:38.105Z,4.93
2017-12-13T10:14:09.729Z,5.37
2017-12-13T10:16:42.341Z,5.43
2017-12-13T10:19:14.141Z,4.93
2017-12-13T10:21:45.752Z,4.70
2017-12-13T10:24:17.344Z,5.10
2017-12-13T10:26:49.661Z,4.83
2017-12-13T10:29:21.289Z,4.53
2017-12-13T10:31:52.901Z,4.27
2017-12-13T10:34:24.749Z,4.07
2017-12-13T10:36:56.344Z,4.10
2017-12-13T10:39:27.962Z,4.30
2017-12-13T10:42:00.469Z,4.40
2017-12-13T10:44:32.061Z,3.93
2017-12-13T10:47:03.688Z,4.03
2017-12-13T10:49:35.293Z,3.73
2017-12-13T10:52:06.877Z,3.30
2017-12-13T10:54:38.494Z,3.43
2017-12-13T10:57:10.912Z,3.80
2017-12-13T10:59:42.526Z,3.40
2017-12-13T11:02:14.093Z,3.50
2017-12-13T11:04:45.710Z,3.37
2017-12-13T11:07:17.288Z,4.03
2017-12-13T11:09:48.896Z,3.60
2017-12-13T11:12:20.497Z,3.80
2017-12-13T11:14:52.100Z,3.17
2017-12-13T11:17:23.705Z,3.37
2017-12-13T11:19:55.307Z,3.47
2017-12-13T11:22:26.897Z,4.10
2017-12-13T11:24:59.096Z,3.57
2017-12-13T11:27:30.685Z,3.90
2017-12-13T11:30:02.303Z,4.13
2017-12-13T11:32:33.880Z,4.10
2017-12-13T11:35:05.465Z,3.83
2017-12-13T11:37:37.127Z,3.80
2017-12-13T11:40:08.750Z,3.63
2017-12-13T11:42:40.376Z,3.90
2017-12-13T11:45:11.981Z,4.00
2017-12-13T11:47:43.563Z,3.97
2017-12-13T11:50:17.269Z,4.03
2017-12-13T11:52:48.853Z,4.00
2017-12-13T11:55:20.462Z,3.77
2017-12-13T11:57:52.054Z,3.53
2017-12-13T12:00:23.656Z,3.67
2017-12-13T12:02:55.233Z,3.03
2017-12-13T12:05:26.827Z,3.97
2017-12-13T12:07:58.428Z,3.07
2017-12-13T12:10:30.043Z,3.60
2017-12-13T12:13:01.625Z,3.87
2017-12-13T12:15:33.244Z,3.10
2017-12-13T12:18:04.834Z,3.57
2017-12-13T12:20:36.447Z,3.40
2017-12-13T12:23:08.013Z,3.80
2017-12-13T12:25:39.616Z,3.83
2017-12-13T12:28:11.254Z,3.60
2017-12-13T12:30:42.830Z,3.97
2017-12-13T12:33:14.417Z,3.87
2017-12-13T12:35:46.036Z,3.40
2017-12-13T12:38:17.618Z,3.73
2017-12-13T12:40:49.235Z,3.73
2017-12-13T12:43:20.840Z,3.90
2017-12-13T12:45:52.456Z,4.03
2017-12-13T12:48:24.060Z,4.20
2017-12-13T12:50:55.624Z,3.90
2017-12-13T12:53:27.224Z,4.30
2017-12-13T12:55:58.800Z,3.90
2017-12-13T12:58:30.656Z,4.60
2017-12-13T13:01:02.229Z,4.20
2017-12-13T13:03:33.845Z,4.77
2017-12-13T13:06:05.469Z,4.23
2017-12-13T13:08:37.077Z,4.87
2017-12-13T13:11:08.828Z,4.50
2017-12-13T13:13:41.129Z,5.20
2017-12-13T13:16:12.745Z,5.20
2017-12-13T13:18:44.340Z,5.33
2017-12-13T13:21:15.965Z,4.87
2017-12-13T13:23:47.560Z,5.30
2017-12-13T13:26:19.464Z,4.57
2017-12-13T13:28:51.081Z,5.20
2017-12-13T13:31:22.674Z,3.30
2017-12-13T13:33:54.288Z,4.63
2017-12-13T13:36:25.877Z,4.43
2017-12-13T13:38:57.485Z,4.70
2017-12-13T13:41:29.092Z,4.30
2017-12-13T13:44:01.302Z,4.50
2017-12-13T13:46:32.901Z,4.50
2017-12-13T13:49:04.490Z,4.50
2017-12-13T13:51:36.088Z,4.40
2017-12-13T13:54:08.420Z,5.20
2017-12-13T13:56:40.030Z,4.90
2017-12-13T13:59:11.640Z,4.53
2017-12-13T14:01:43.246Z,4.90
2017-12-13T14:04:14.824Z,4.50
2017-12-13T14:06:46.427Z,4.40
2017-12-13T14:09:18.012Z,4.70
2017-12-13T14:11:49.624Z,3.83
2017-12-13T14:14:21.236Z,4.80
2017-12-13T14:16:52.821Z,4.10
2017-12-13T14:19:24.417Z,4.43
2017-12-13T14:21:56.031Z,3.93
2017-12-13T14:24:27.602Z,3.80
2017-12-13T14:26:59.216Z,4.07
2017-12-13T14:29:30.811Z,3.73
2017-12-13T14:32:02.441Z,3.63
2017-12-13T14:34:34.028Z,3.90
2017-12-13T14:37:05.624Z,4.07
2017-12-13T14:39:37.213Z,4.03
2017-12-13T14:42:08.847Z,3.63
2017-12-13T14:44:40.484Z,3.80
2017-12-13T14:47:12.080Z,3.87
2017-12-13T14:49:43.701Z,3.80
2017-12-13T14:52:15.311Z,3.70
2017-12-13T14:54:46.909Z,3.53
2017-12-13T14:57:18.534Z,3.70
2017-12-13T14:59:50.140Z,3.60
2017-12-13T15:02:21.735Z,3.70
2017-12-13T15:04:53.344Z,3.77
2017-12-13T15:07:24.948Z,3.80
2017-12-13T15:09:56.544Z,3.20
2017-12-13T15:12:28.133Z,3.90
2017-12-13T15:14:59.744Z,3.83
2017-12-13T15:17:31.349Z,3.80
2017-12-13T15:20:02.929Z,3.70
2017-12-13T15:22:34.583Z,3.40
2017-12-13T15:25:06.164Z,3.40
2017-12-13T15:27:37.779Z,3.30
2017-12-13T15:30:09.377Z,3.30
2017-12-13T15:32:40.985Z,3.80
2017-12-13T15:35:12.591Z,3.40
2017-12-13T15:37:44.196Z,3.77
2017-12-13T15:40:15.806Z,3.07
2017-12-13T15:42:47.404Z,3.10
2017-12-13T15:45:19.025Z,3.10
2017-12-13T15:47:50.632Z,3.10
2017-12-13T15:50:22.202Z,3.40
2017-12-13T15:52:53.812Z,2.80
2017-12-13T15:55:25.400Z,3.27
2017-12-13T15:57:57.024Z,3.37
2017-12-13T16:00:28.616Z,2.90
2017-12-13T16:03:00.235Z,2.63
2017-12-13T16:05:31.804Z,2.60
2017-12-13T16:08:03.412Z,2.33
2017-12-13T16:10:35.016Z,2.37
2017-12-13T16:13:06.584Z,2.30
2017-12-13T16:15:39.060Z,2.47
2017-12-13T16:18:10.741Z,2.93
2017-12-13T16:20:42.302Z,2.57
2017-12-13T16:23:13.900Z,2.40
2017-12-13T16:25:45.482Z,2.30
2017-12-13T16:28:17.079Z,3.20
2017-12-13T16:30:48.677Z,3.20
2017-12-13T16:33:20.272Z,3.57
2017-12-13T16:35:51.870Z,3.57
2017-12-13T16:38:23.474Z,3.20
2017-12-13T16:40:55.070Z,3.60
2017-12-13T16:43:26.711Z,3.30
2017-12-13T16:45:58.329Z,4.00
2017-12-13T16:48:29.928Z,3.57
2017-12-13T16:51:01.544Z,3.70
2017-12-13T16:53:33.205Z,2.50
2017-12-13T16:56:04.834Z,3.23
2017-12-13T16:58:36.436Z,3.20
2017-12-13T17:01:08.016Z,3.53
2017-12-13T17:03:39.611Z,3.20
2017-12-13T17:06:11.217Z,2.63
2017-12-13T17:08:42.814Z,3.80
2017-12-13T17:11:14.474Z,3.37
2017-12-13T17:13:46.080Z,3.33
2017-12-13T17:16:17.713Z,3.50
2017-12-13T17:18:49.357Z,3.27
2017-12-13T17:21:20.980Z,3.20
2017-12-13T17:23:52.690Z,2.77
2017-12-13T17:26:24.333Z,4.10
2017-12-13T17:28:55.959Z,3.40
2017-12-13T17:31:27.679Z,3.60
2017-12-13T17:33:59.422Z,3.93
2017-12-13T17:36:31.023Z,2.73
2017-12-13T17:39:02.605Z,4.00
2017-12-13T17:41:34.239Z,3.30
2017-12-13T17:44:05.871Z,3.97
2017-12-13T17:46:37.501Z,3.90
2017-12-13T17:49:09.204Z,4.40
2017-12-13T17:51:40.800Z,4.47
2017-12-13T17:54:12.398Z,4.03
2017-12-13T17:56:44.016Z,4.63
2017-12-13T17:59:15.627Z,3.27
2017-12-13T18:01:47.262Z,3.83
2017-12-13T18:04:18.857Z,3.33
2017-12-13T18:06:50.440Z,4.50
2017-12-13T18:09:22.067Z,4.47
2017-12-13T18:11:53.675Z,3.40
2017-12-13T18:14:25.309Z,3.70
2017-12-13T18:16:56.941Z,3.80
2017-12-13T18:19:28.567Z,3.30
2017-12-13T18:22:00.238Z,3.23
2017-12-13T18:24:31.821Z,3.93
2017-12-13T18:27:03.417Z,3.83
2017-12-13T18:29:35.020Z,3.90
2017-12-13T18:32:06.664Z,4.53
2017-12-13T18:34:38.242Z,3.40
2017-12-13T18:37:09.889Z,3.20
2017-12-13T18:39:41.501Z,3.10
2017-12-13T18:42:13.172Z,3.57
2017-12-13T18:44:44.790Z,2.83
2017-12-13T18:47:16.393Z,2.47
2017-12-13T18:49:48.013Z,3.40
2017-12-13T18:52:19.598Z,3.50
2017-12-13T18:54:51.196Z,3.60
2017-12-13T18:57:22.797Z,3.40
2017-12-13T18:59:54.388Z,3.30
2017-12-13T19:02:26.021Z,2.73
2017-12-13T19:04:57.618Z,3.10
2017-12-13T19:07:29.245Z,3.50
2017-12-13T19:10:00.846Z,3.43
2017-12-13T19:12:32.472Z,2.70
2017-12-13T19:15:04.105Z,2.90
2017-12-13T19:17:35.677Z,2.80
2017-12-13T19:20:07.304Z,3.10
2017-12-13T19:22:38.900Z,2.57
2017-12-13T19:25:10.517Z,2.33
2017-12-13T19:27:42.196Z,2.97
2017-12-13T19:30:13.805Z,2.97
2017-12-13T19:32:45.419Z,2.50
2017-12-13T19:35:17.005Z,2.33
2017-12-13T19:37:48.644Z,1.67
2017-12-13T19:40:20.317Z,2.90
2017-12-13T19:42:51.915Z,2.20
2017-12-13T19:45:23.562Z,2.27
2017-12-13T19:47:55.141Z,2.60
2017-12-13T19:50:26.763Z,2.10
2017-12-13T19:52:58.404Z,3.10
2017-12-13T19:55:30.054Z,2.33
2017-12-13T19:58:01.621Z,2.20
2017-12-13T20:00:33.314Z,2.20
2017-12-13T20:03:04.926Z,1.97
2017-12-13T20:05:36.681Z,2.00
2017-12-13T20:08:08.310Z,2.20
2017-12-13T20:10:40.003Z,2.00
2017-12-13T20:13:11.655Z,2.07
2017-12-13T20:15:43.305Z,2.13
2017-12-13T20:18:14.922Z,1.30
2017-12-13T20:20:46.567Z,2.10
2017-12-13T20:23:18.221Z,1.60
2017-12-13T20:25:49.903Z,2.00
2017-12-13T20:28:21.554Z,2.40
2017-12-13T20:30:53.273Z,2.70
2017-12-13T20:33:24.885Z,2.20
2017-12-13T20:35:56.618Z,2.00
2017-12-13T20:38:28.258Z,2.00
2017-12-13T20:40:59.866Z,2.00
2017-12-13T20:43:31.502Z,1.50
2017-12-13T20:46:03.154Z,1.80
2017-12-13T20:48:34.730Z,1.60
2017-12-13T20:51:06.365Z,1.60
2017-12-13T20:53:38.033Z,1.80
2017-12-13T20:56:09.650Z,1.50
2017-12-13T20:58:41.328Z,1.73
2017-12-13T21:01:12.996Z,2.03
2017-12-13T21:03:45.572Z,1.60
2017-12-13T21:06:17.530Z,1.87
2017-12-13T21:08:49.201Z,1.83
2017-12-13T21:11:20.813Z,1.77
2017-12-13T21:13:52.441Z,1.63
2017-12-13T21:16:24.093Z,1.70
2017-12-13T21:18:55.693Z,1.47
2017-12-13T21:21:27.297Z,1.60
2017-12-13T21:23:59.113Z,1.67
2017-12-13T21:26:30.717Z,1.47
2017-12-13T21:29:02.300Z,2.03
2017-12-13T21:31:33.935Z,1.60
2017-12-13T21:34:05.544Z,1.70
2017-12-13T21:36:37.182Z,1.60
2017-12-13T21:39:08.759Z,1.80
2017-12-13T21:41:40.379Z,1.80
2017-12-13T21:44:12.362Z,1.97
2017-12-13T21:46:43.979Z,1.90
2017-12-13T21:49:15.604Z,1.93
2017-12-13T21:51:47.224Z,1.77
2017-12-13T21:54:18.808Z,1.83
2017-12-13T21:56:50.436Z,1.87
2017-12-13T21:59:22.061Z,1.90
2017-12-13T22:01:53.668Z,2.00
2017-12-13T22:04:25.309Z,1.90
2017-12-13T22:06:56.873Z,1.77
2017-12-13T22:09:28.501Z,1.53
2017-12-13T22:12:00.125Z,1.90
2017-12-13T22:14:31.746Z,1.80
2017-12-13T22:17:03.353Z,1.73
2017-12-13T22:19:34.957Z,1.70
2017-12-13T22:22:11.474Z,1.40
2017-12-13T22:24:43.146Z,1.80
2017-12-13T22:27:14.728Z,1.40
2017-12-13T22:29:46.316Z,1.50
2017-12-13T22:32:17.933Z,1.53
2017-12-13T22:34:51.295Z,1.30
2017-12-13T22:37:22.905Z,1.13
2017-12-13T22:39:55.238Z,1.10
2017-12-13T22:42:26.843Z,1.43
2017-12-13T22:44:58.449Z,1.30
2017-12-13T22:47:30.073Z,1.37
2017-12-13T22:50:01.689Z,1.60
2017-12-13T22:52:33.369Z,1.53
2017-12-13T22:55:04.975Z,1.60
2017-12-13T22:57:36.655Z,1.50
2017-12-13T23:00:08.240Z,1.27
2017-12-13T23:02:39.832Z,1.80
2017-12-13T23:05:11.427Z,1.20
2017-12-13T23:07:43.027Z,1.80
2017-12-13T23:10:14.646Z,1.07
2017-12-13T23:12:46.229Z,1.10
2017-12-13T23:15:17.827Z,1.10
2017-12-13T23:17:49.436Z,1.30
2017-12-13T23:20:21.032Z,1.30
2017-12-13T23:22:52.675Z,1.40
2017-12-13T23:25:24.283Z,1.00
2017-12-13T23:27:55.848Z,0.93
2017-12-13T23:30:27.465Z,1.20
2017-12-13T23:32:59.076Z,1.10
2017-12-13T23:35:31.121Z,1.37
2017-12-13T23:38:02.722Z,1.00
2017-12-13T23:40:34.770Z,1.00
2017-12-13T23:43:06.394Z,1.00
2017-12-13T23:45:37.974Z,1.20
2017-12-13T23:48:09.592Z,1.30
2017-12-13T23:50:41.172Z,1.27
2017-12-13T23:53:12.788Z,1.10
2017-12-13T23:55:44.416Z,1.07
2017-12-13T23:58:15.996Z,1.30
